Aérodrome :
LOGIN :

S'inscrire | Disclaimer

   EN    FR    IT 

 










Légende :    VFR   VFR Marginal   IFR   IFR Intensif   IFR Très Intensif
Visi : 
Plafond : 
>= 8 km
>= 3000ft
5 à 8 km
1000 à 3000 ft
1500m à 5 km
500 à 1000 ft
800 à 1500m
200 à 500 ft
< 800m
< 200 ft
Symboles :   Orages  Brouillard  Fortes neiges  Fortes précipitations  Vent > 20 kt
SIGMETs :   Divers  Orages  Givrage  Turbulence  Onde Orograph.  Cendres Volcan.






- Altitude de l'aérodrome : 1470 ft
- Code IATA : KLU


LOWK - Klagenfurt

DERNIER METAR :
  • 041520Z 02003KT 310V080 9999 FEW025 SCT050 21/16 Q1013 NOSIG

METARs EXPIRÉS :
  • 041450Z 32003KT 9999 FEW025 SCT100 21/16 Q1014 NOSIG
  • 041420Z 33005KT 9999 FEW020 SCT080 21/16 Q1014 NOSIG
  • 041350Z VRB02KT 9999 -SHRA FEW020 SCT060 BKN090 21/16 Q1014 NOSIG
  • 041320Z 06003KT 020V100 9999 FEW020 SCT060 BKN080 21/16 Q1014 NOSIG
  • 041250Z 06003KT 330V140 9999 FEW020 SCT060 BKN080 21/16 Q1014 NOSIG

TAF TAF LOWK
Valide du 04 à 12h jusqu'au 05 à 12h UTC


041115Z 0412/0512 VRB04KT 9999 FEW030 BKN070 TX22/0416Z TN16/0505Z
TEMPO 0412/0512 -SHRA FEW040CB BKN060
PROB30
TEMPO 0412/0416 TSRA SHRA
TEMPO 0504/0512 4000 RA BKN012 OVC035



MET'MAP, la Météo Aéronautique d'un coup d'oeil ! - Copyright ORBIFLY Décembre 2007 - Disclaimer

ORBIFLY MET'MAP TEAM :

Programmation & Développement : Alexandra Zaïnal
Sur une idée originale de : Baudouin d'Aumeries
Assistance à la programmation : Marc-Olivier Méhu
Soutien technique & logistique : Manuel Goepfert

Contact : metmap@orbifly.com




SOURCES & CREDITS :

   NOAA